Terminal Aerodrome Forecast
Issued by NWS

Home | Current Version | Previous Version | Text Only | Print | Product List | Glossary On
Versions: 1 2 3 4 5 6 7 8 9 10 11 12 13
629
FTUS43 KGRR 161140
TAFAZO
TAF
KAZO 161140Z 1612/1712 16003KT 6SM BR OVC070
      TEMPO 1614/1616 3SM -FZRAPL BR
     FM161600 14006KT 3SM -FZRA BR OVC015
     FM161900 12006KT 1 1/2SM -RA BR OVC007
     FM162300 10006KT 1/2SM RA FG OVC003=

USA.gov is the U.S. government's official web portal to all federal, state and local government web resources and services.